Time;durP1;ratioP1;P1;durP2;ratioP2;P2;SDS_P1;SDS_P2;PMS_P1;PMS_P2;Temp;Humidity;BMP_temperature;BMP_pressure;BME280_temperature;BME280_humidity;BME280_pressure;Samples;Min_cycle;Max_cycle;Signal;HPM_P1;HPM_P2
2024/04/18 00:01:35;;;;;;;0.68;0.68;;;;;;;5.96;38.54;91603.41;5448554;26;19999;-79
2024/04/18 00:04:01;;;;;;;0.55;0.55;;;;;;;5.94;38.74;91597.72;5450642;26;20005;-81
2024/04/18 00:06:26;;;;;;;0.70;0.70;;;;;;;5.91;38.92;91597.50;5449557;26;20010;-80
2024/04/18 00:08:52;;;;;;;0.73;0.60;;;;;;;5.89;38.84;91595.16;5449328;26;20017;-80
2024/04/18 00:11:23;;;;;;;1.05;0.70;;;;;;;5.85;38.66;91599.34;5452142;26;20013;-81
2024/04/18 00:13:49;;;;;;;0.50;0.50;;;;;;;5.81;38.93;91591.38;5443453;26;19999;-81
2024/04/18 00:16:35;;;;;;;0.70;0.60;;;;;;;5.76;39.60;91593.22;5451866;26;20052;-81
2024/04/18 00:19:17;;;;;;;0.60;0.60;;;;;;;5.78;39.20;91593.72;5442306;26;20003;-81
2024/04/18 00:21:58;;;;;;;0.50;0.50;;;;;;;5.75;39.03;91587.28;5422267;26;20076;-81
2024/04/18 00:24:27;;;;;;;0.50;0.50;;;;;;;5.76;38.96;91588.03;5449124;26;20071;-81
2024/04/18 00:26:53;;;;;;;0.90;0.65;;;;;;;5.74;38.79;91580.53;5450258;26;20367;-80
2024/04/18 00:29:19;;;;;;;1.20;0.75;;;;;;;5.68;39.51;91591.28;5449151;26;20002;-80
2024/04/18 00:31:44;;;;;;;2.63;0.70;;;;;;;5.60;39.88;91585.63;5438094;26;19995;-81
2024/04/18 00:34:30;;;;;;;0.95;0.70;;;;;;;5.73;39.48;91583.41;5452264;26;20046;-80
2024/04/18 00:36:55;;;;;;;0.60;0.60;;;;;;;5.63;39.51;91582.47;5443833;26;19999;-81
2024/04/18 00:39:24;;;;;;;0.55;0.55;;;;;;;5.60;39.75;91575.22;5452379;26;20023;-81
2024/04/18 00:41:59;;;;;;;0.50;0.50;;;;;;;5.55;39.39;91570.09;5440636;26;20007;-80
2024/04/18 00:44:28;;;;;;;1.85;0.60;;;;;;;5.53;39.55;91574.03;5437157;26;19991;-81
2024/04/18 00:47:12;;;;;;;0.60;0.60;;;;;;;5.48;39.66;91569.66;5441931;26;19999;-80
2024/04/18 00:49:38;;;;;;;0.73;0.70;;;;;;;5.46;39.85;91569.16;5437997;26;19999;-81
2024/04/18 00:52:04;;;;;;;0.63;0.63;;;;;;;5.44;39.68;91571.25;5432372;26;20010;-81
2024/04/18 00:54:30;;;;;;;1.05;0.60;;;;;;;5.43;39.84;91562.72;5449704;26;20003;-80
2024/04/18 00:56:59;;;;;;;0.60;0.60;;;;;;;5.40;40.09;91560.69;5450398;26;20003;-80
2024/04/18 00:59:25;;;;;;;0.40;0.40;;;;;;;5.42;40.27;91558.56;5447291;26;20078;-80
2024/04/18 01:02:11;;;;;;;1.45;0.60;;;;;;;5.40;40.09;91565.88;5448782;26;20017;-81
2024/04/18 01:04:39;;;;;;;0.47;0.47;;;;;;;5.37;40.29;91556.03;5438173;26;20011;-81
2024/04/18 01:07:10;;;;;;;0.55;0.55;;;;;;;5.43;40.24;91548.97;5451245;26;20013;-81
2024/04/18 01:09:45;;;;;;;0.70;0.70;;;;;;;5.37;40.59;91552.66;5445044;26;20011;-80
2024/04/18 01:12:11;;;;;;;1.40;0.70;;;;;;;5.38;40.77;91552.41;5441700;26;20014;-80
2024/04/18 01:14:37;;;;;;;0.65;0.60;;;;;;;5.35;40.59;91541.78;5448307;26;20447;-80
2024/04/18 01:17:03;;;;;;;0.52;0.52;;;;;;;5.32;40.68;91547.53;5449956;26;20048;-81
2024/04/18 01:19:29;;;;;;;0.60;0.60;;;;;;;5.33;40.15;91543.88;5446911;26;20077;-80
2024/04/18 01:21:55;;;;;;;0.45;0.45;;;;;;;5.30;40.31;91541.84;5441918;26;19999;-81
2024/04/18 01:24:21;;;;;;;0.60;0.60;;;;;;;5.27;41.61;91547.56;5476343;26;20343;-80
2024/04/18 01:26:46;;;;;;;0.82;0.63;;;;;;;5.25;41.79;91542.69;5444528;26;20021;-80
2024/04/18 01:29:12;;;;;;;0.50;0.50;;;;;;;5.34;41.11;91540.25;5448927;26;20002;-79
2024/04/18 01:31:58;;;;;;;0.45;0.45;;;;;;;5.32;41.49;91537.16;5441426;26;20322;-80
2024/04/18 01:34:23;;;;;;;0.50;0.50;;;;;;;5.21;42.14;91547.63;5435703;26;20003;-80
2024/04/18 01:37:13;;;;;;;1.00;0.60;;;;;;;5.14;42.55;91542.00;5448807;26;20426;-81
2024/04/18 01:39:39;;;;;;;0.50;0.50;;;;;;;5.08;43.04;91530.13;5451271;26;19999;-80
2024/04/18 01:42:05;;;;;;;0.60;0.60;;;;;;;5.13;42.57;91544.84;5451174;26;20338;-80
2024/04/18 01:44:46;;;;;;;0.63;0.60;;;;;;;5.08;42.57;91540.50;5448663;26;19995;-79
2024/04/18 01:47:31;;;;;;;0.45;0.45;;;;;;;5.05;43.68;91543.66;5445519;26;20014;-80
2024/04/18 01:50:06;;;;;;;0.57;0.57;;;;;;;5.09;43.32;91538.66;5450756;26;19999;-81
2024/04/18 01:52:32;;;;;;;1.27;0.70;;;;;;;5.04;43.06;91541.31;5437491;26;20003;-80
2024/04/18 01:55:07;;;;;;;0.70;0.70;;;;;;;5.00;43.14;91538.53;5437160;26;20016;-80
2024/04/18 01:57:37;;;;;;;1.48;0.60;;;;;;;5.01;43.21;91545.25;5448366;26;20007;-81
2024/04/18 02:00:21;;;;;;;0.40;0.40;;;;;;;5.03;42.63;91545.75;5453515;26;20017;-79
2024/04/18 02:02:47;;;;;;;0.60;0.60;;;;;;;5.05;42.01;91538.47;5438026;26;19999;-81
2024/04/18 02:05:32;;;;;;;0.50;0.50;;;;;;;5.05;41.89;91538.47;5419218;26;20904;-80
2024/04/18 02:08:13;;;;;;;0.60;0.60;;;;;;;4.97;42.70;91541.66;5440894;26;20003;-80
2024/04/18 02:10:43;;;;;;;0.60;0.60;;;;;;;4.93;42.63;91535.44;5450076;26;20052;-81
2024/04/18 02:13:29;;;;;;;0.50;0.50;;;;;;;4.92;42.30;91539.09;5449074;26;20052;-80
2024/04/18 02:15:55;;;;;;;1.20;0.70;;;;;;;4.91;41.80;91537.53;5448362;26;20153;-80
2024/04/18 02:18:20;;;;;;;0.60;0.60;;;;;;;4.88;42.13;91543.28;5454209;26;20011;-80
2024/04/18 02:20:46;;;;;;;0.40;0.40;;;;;;;4.87;41.78;91533.97;5445239;26;20005;-81
2024/04/18 02:23:23;;;;;;;0.60;0.60;;;;;;;4.91;42.01;91538.34;5450802;26;20077;-81
2024/04/18 02:25:50;;;;;;;1.20;0.63;;;;;;;4.89;42.55;91539.66;5447086;26;19998;-80
2024/04/18 02:28:15;;;;;;;1.58;0.55;;;;;;;4.84;42.31;91532.72;5450351;26;19999;-80
2024/04/18 02:30:41;;;;;;;0.75;0.63;;;;;;;4.87;42.18;91531.38;5445216;26;20439;-79
2024/04/18 02:33:13;;;;;;;0.60;0.60;;;;;;;4.83;41.68;91532.97;5445720;26;19998;-81
2024/04/18 02:35:46;;;;;;;0.75;0.65;;;;;;;4.82;41.35;91539.19;5453692;26;20007;-80
2024/04/18 02:38:30;;;;;;;0.60;0.60;;;;;;;4.85;42.82;91533.47;5453660;26;20054;-80
2024/04/18 02:41:03;;;;;;;0.43;0.43;;;;;;;4.84;40.87;91534.50;5455884;26;20446;-81
2024/04/18 02:43:50;;;;;;;0.60;0.60;;;;;;;4.85;42.21;91541.25;5440740;26;20061;-81
2024/04/18 02:46:16;;;;;;;0.63;0.63;;;;;;;4.80;42.54;91531.69;5452147;26;20280;-81
2024/04/18 02:49:01;;;;;;;0.50;0.50;;;;;;;4.83;40.43;91540.75;5442880;26;19999;-79
2024/04/18 02:51:27;;;;;;;0.60;0.60;;;;;;;5.00;39.71;91536.69;5443494;26;20044;-80
2024/04/18 02:54:10;;;;;;;0.90;0.70;;;;;;;5.05;39.37;91535.88;5434862;26;20039;-80
2024/04/18 02:56:36;;;;;;;0.52;0.50;;;;;;;5.00;40.03;91535.94;5448285;26;20002;-81
2024/04/18 02:59:10;;;;;;;2.10;0.60;;;;;;;4.96;40.60;91534.94;5437033;26;19995;-80
2024/04/18 03:01:48;;;;;;;0.50;0.50;;;;;;;4.91;40.14;91530.56;5452011;26;19999;-81
2024/04/18 03:04:14;;;;;;;1.00;0.70;;;;;;;4.91;40.44;91529.75;5442224;26;20014;-80
2024/04/18 03:06:39;;;;;;;0.45;0.45;;;;;;;4.94;40.11;91526.66;5448092;26;20350;-80
2024/04/18 03:09:11;;;;;;;0.50;0.50;;;;;;;4.91;40.42;91534.94;5440286;26;20039;-79
2024/04/18 03:11:57;;;;;;;0.50;0.50;;;;;;;4.90;40.34;91526.41;5448728;26;20386;-80
2024/04/18 03:14:42;;;;;;;0.47;0.47;;;;;;;4.94;39.99;91537.03;5452906;26;19999;-80
2024/04/18 03:17:08;;;;;;;0.68;0.52;;;;;;;4.95;39.63;91536.75;5449792;26;20364;-81
2024/04/18 03:19:52;;;;;;;0.70;0.70;;;;;;;4.90;39.37;91530.81;5439535;26;20017;-80
2024/04/18 03:22:24;;;;;;;0.50;0.50;;;;;;;4.92;38.85;91533.91;5452815;26;19999;-79
2024/04/18 03:25:00;;;;;;;0.68;0.63;;;;;;;4.86;38.36;91524.63;5451714;26;20013;-80
2024/04/18 03:27:28;;;;;;;0.75;0.65;;;;;;;4.90;38.06;91525.63;5442464;26;20006;-80
2024/04/18 03:29:53;;;;;;;0.73;0.63;;;;;;;4.88;38.15;91525.13;5445039;26;20455;-80
2024/04/18 03:32:32;;;;;;;0.70;0.70;;;;;;;4.87;38.13;91521.00;5446631;26;20067;-80
2024/04/18 03:34:58;;;;;;;0.90;0.70;;;;;;;4.96;37.81;91535.69;5445146;26;20013;-80
2024/04/18 03:37:23;;;;;;;0.60;0.60;;;;;;;4.98;37.17;91528.41;5443065;26;19999;-80
2024/04/18 03:39:49;;;;;;;0.50;0.50;;;;;;;5.11;37.29;91536.56;5450525;26;19999;-80
2024/04/18 03:42:15;;;;;;;0.60;0.60;;;;;;;5.03;37.42;91527.59;5447780;26;20432;-80
2024/04/18 03:44:54;;;;;;;0.60;0.60;;;;;;;4.99;37.71;91526.59;5449020;26;19995;-80
2024/04/18 03:47:20;;;;;;;1.02;0.60;;;;;;;4.95;37.94;91530.78;5460298;26;20006;-81
2024/04/18 03:50:04;;;;;;;0.55;0.55;;;;;;;4.91;37.86;91532.34;5448429;26;20013;-80
2024/04/18 03:52:37;;;;;;;1.15;0.50;;;;;;;4.96;36.97;91530.50;5450051;26;19999;-78
2024/04/18 03:55:25;;;;;;;2.45;0.80;;;;;;;4.93;36.98;91525.06;5452765;26;20045;-80
2024/04/18 03:57:50;;;;;;;0.75;0.73;;;;;;;4.97;36.93;91528.69;5457081;26;20006;-80
2024/04/18 04:00:37;;;;;;;0.60;0.60;;;;;;;4.98;36.76;91527.66;5444040;26;20017;-80
2024/04/18 04:03:02;;;;;;;2.15;0.65;;;;;;;4.98;36.58;91525.06;5456329;26;20010;-80
2024/04/18 04:05:28;;;;;;;0.93;0.60;;;;;;;5.04;36.13;91521.34;5450142;26;20007;-80
2024/04/18 04:07:54;;;;;;;0.57;0.57;;;;;;;5.03;36.19;91532.00;5451149;26;20002;-80
2024/04/18 04:10:38;;;;;;;1.40;0.57;;;;;;;5.00;36.58;91530.75;5461627;26;20067;-80
2024/04/18 04:13:03;;;;;;;1.13;0.60;;;;;;;4.98;37.01;91535.44;5461890;26;20168;-81
2024/04/18 04:15:42;;;;;;;0.68;0.60;;;;;;;4.98;35.69;91522.47;5460460;26;20017;-80
2024/04/18 04:18:08;;;;;;;0.60;0.60;;;;;;;4.99;36.39;91534.38;5452532;26;19998;-81
2024/04/18 04:20:39;;;;;;;0.70;0.70;;;;;;;4.96;36.34;91535.69;5454446;26;20164;-79
2024/04/18 04:23:06;;;;;;;3.08;0.73;;;;;;;5.12;35.77;91544.09;5451475;26;19999;-79
2024/04/18 04:25:53;;;;;;;0.70;0.63;;;;;;;5.07;35.53;91535.59;5438354;26;20101;-80
2024/04/18 04:28:19;;;;;;;0.63;0.63;;;;;;;4.99;35.89;91534.38;5451151;26;20003;-80
2024/04/18 04:30:44;;;;;;;0.88;0.80;;;;;;;4.99;35.80;91531.78;5449470;26;19999;-81
2024/04/18 04:33:10;;;;;;;0.60;0.60;;;;;;;5.00;35.88;91530.75;5461123;26;20099;-80
2024/04/18 04:35:35;;;;;;;1.25;0.70;;;;;;;4.96;35.95;91534.94;5453592;26;20103;-80
2024/04/18 04:38:01;;;;;;;0.77;0.70;;;;;;;4.91;36.43;91530.56;5458985;26;20301;-79
2024/04/18 04:40:31;;;;;;;0.70;0.60;;;;;;;4.94;36.40;91540.38;5457484;26;19999;-79
2024/04/18 04:43:07;;;;;;;0.63;0.63;;;;;;;4.90;36.13;91536.00;5449756;26;20018;-76
2024/04/18 04:45:32;;;;;;;0.73;0.63;;;;;;;4.88;35.93;91538.09;5449849;26;20367;-77
2024/04/18 04:48:05;;;;;;;2.03;0.68;;;;;;;4.83;35.48;91530.38;5449418;26;19999;-76
2024/04/18 04:50:30;;;;;;;0.65;0.65;;;;;;;4.91;35.50;91547.91;5418572;26;20426;-76
2024/04/18 04:53:13;;;;;;;0.60;0.60;;;;;;;4.90;35.76;91538.59;5448215;26;20416;-76
2024/04/18 04:56:03;;;;;;;0.50;0.50;;;;;;;4.91;35.68;91540.13;5420508;26;20357;-76
2024/04/18 04:58:29;;;;;;;0.63;0.63;;;;;;;4.94;35.65;91544.78;5451266;26;20475;-77
2024/04/18 05:00:56;;;;;;;0.95;0.63;;;;;;;4.94;35.50;91548.16;5449218;26;20065;-76
2024/04/18 05:03:35;;;;;;;2.05;0.60;;;;;;;4.95;35.87;91559.28;5446714;26;19999;-76
2024/04/18 05:06:20;;;;;;;1.58;0.60;;;;;;;4.98;35.77;91556.19;5456174;26;20013;-76
2024/04/18 05:09:09;;;;;;;0.70;0.70;;;;;;;4.99;36.12;91561.06;5413282;26;20018;-77
2024/04/18 05:12:06;;;;;;;0.82;0.70;;;;;;;5.05;36.05;91559.22;5439450;26;20056;-76
2024/04/18 05:14:39;;;;;;;1.08;0.60;;;;;;;5.06;35.43;91562.56;5450993;26;19999;-76
2024/04/18 05:17:24;;;;;;;3.42;0.73;;;;;;;5.08;35.64;91563.84;5450657;26;20071;-76
2024/04/18 05:20:10;;;;;;;4.57;0.85;;;;;;;5.14;35.84;91570.53;5447810;26;20003;-76
2024/04/18 05:22:35;;;;;;;0.65;0.60;;;;;;;5.17;35.75;91572.56;5447659;26;20014;-77
2024/04/18 05:25:01;;;;;;;0.60;0.60;;;;;;;5.22;36.10;91577.72;5444394;26;20076;-76
2024/04/18 05:27:27;;;;;;;0.63;0.60;;;;;;;5.28;35.28;91575.84;5444464;26;20014;-76
2024/04/18 05:32:37;;;;;;;4.07;0.85;;;;;;;5.31;35.98;91587.50;5440579;26;20002;-76
2024/04/18 05:35:08;;;;;;;2.30;0.95;;;;;;;5.38;36.55;91590.53;5446239;26;20006;-77
2024/04/18 05:37:34;;;;;;;1.27;0.70;;;;;;;5.37;35.91;91578.63;5449028;26;20050;-76
2024/04/18 05:39:59;;;;;;;0.65;0.60;;;;;;;5.46;36.16;91583.97;5448877;26;20090;-76
2024/04/18 05:42:25;;;;;;;0.70;0.70;;;;;;;5.51;35.66;91583.91;5451775;26;20003;-77
2024/04/18 05:45:09;;;;;;;0.80;0.80;;;;;;;5.62;35.81;91593.91;5421720;26;19999;-77
2024/04/18 05:47:54;;;;;;;1.50;0.70;;;;;;;5.70;35.52;91594.38;5442465;26;20002;-77
2024/04/18 05:50:20;;;;;;;0.70;0.70;;;;;;;5.76;35.73;91591.41;5442738;26;20003;-77
2024/04/18 05:52:46;;;;;;;1.63;0.77;;;;;;;5.88;35.70;91593.63;5447597;26;20010;-77
2024/04/18 05:55:19;;;;;;;0.70;0.70;;;;;;;5.95;35.30;91595.91;5448326;26;20071;-76
2024/04/18 05:57:45;;;;;;;1.10;0.70;;;;;;;6.00;35.19;91599.19;5432839;26;19999;-77
2024/04/18 06:00:30;;;;;;;1.58;0.80;;;;;;;6.17;34.41;91605.75;5451604;26;20084;-79
2024/04/18 06:02:56;;;;;;;0.60;0.60;;;;;;;6.31;34.14;91598.06;5449868;26;20502;-76
2024/04/18 06:05:21;;;;;;;0.68;0.68;;;;;;;6.53;33.19;91600.06;5449443;26;19999;-79
2024/04/18 06:08:06;;;;;;;1.58;0.80;;;;;;;6.63;35.11;91605.13;5449747;26;20502;-76
2024/04/18 06:10:31;;;;;;;1.15;0.75;;;;;;;6.77;34.63;91605.94;5450701;26;20002;-77
2024/04/18 06:13:18;;;;;;;0.93;0.90;;;;;;;6.99;33.76;91613.16;5450557;26;19998;-78
2024/04/18 06:15:44;;;;;;;1.42;0.70;;;;;;;7.07;34.08;91617.72;5447733;26;20395;-76
2024/04/18 06:18:10;;;;;;;0.80;0.80;;;;;;;7.26;34.00;91611.69;5449912;26;20349;-77
2024/04/18 06:20:41;;;;;;;0.82;0.60;;;;;;;7.56;32.40;91610.34;5450348;26;20435;-77
2024/04/18 06:23:07;;;;;;;0.80;0.80;;;;;;;7.70;32.87;91616.38;5447340;26;19998;-79
2024/04/18 06:25:35;;;;;;;1.17;0.70;;;;;;;8.16;32.09;91611.31;5456457;26;20014;-78
2024/04/18 06:28:01;;;;;;;1.70;0.90;;;;;;;8.60;31.90;91620.34;5458318;26;20013;-78
2024/04/18 06:30:27;;;;;;;1.30;0.70;;;;;;;8.69;31.80;91614.13;5458533;26;20455;-78
2024/04/18 06:32:53;;;;;;;1.50;0.60;;;;;;;8.87;31.46;91617.66;5455407;26;20016;-78
2024/04/18 06:35:18;;;;;;;1.27;0.70;;;;;;;8.67;31.06;91618.09;5458106;26;19995;-78
2024/04/18 06:37:44;;;;;;;1.33;0.95;;;;;;;8.93;31.13;91610.47;5458210;26;20071;-78
2024/04/18 06:40:10;;;;;;;1.25;0.90;;;;;;;9.12;30.07;91605.84;5456421;26;20067;-78
2024/04/18 06:42:35;;;;;;;1.88;0.82;;;;;;;9.05;31.35;91615.13;5445644;26;20057;-78
2024/04/18 06:45:01;;;;;;;3.25;0.75;;;;;;;8.91;31.73;91618.56;5461253;26;20055;-78
2024/04/18 06:47:27;;;;;;;0.73;0.70;;;;;;;8.85;32.16;91622.38;5455601;26;20011;-78
2024/04/18 06:50:07;;;;;;;0.98;0.73;;;;;;;9.30;30.21;91627.59;5446998;26;20010;-79
2024/04/18 06:52:33;;;;;;;1.42;0.75;;;;;;;9.93;30.51;91632.78;5457000;26;20003;-79
2024/04/18 06:54:59;;;;;;;1.10;0.90;;;;;;;10.56;30.20;91625.59;5451494;26;19999;-78
2024/04/18 06:57:43;;;;;;;1.38;0.77;;;;;;;11.26;29.10;91618.53;5437490;26;20002;-79
2024/04/18 07:00:13;;;;;;;1.05;0.80;;;;;;;11.46;29.54;91623.09;5446896;26;20259;-79
2024/04/18 07:02:39;;;;;;;0.80;0.70;;;;;;;11.83;29.31;91630.56;5453626;26;20023;-78
2024/04/18 07:05:23;;;;;;;0.85;0.82;;;;;;;12.12;28.30;91621.97;5457444;26;20062;-79
2024/04/18 07:07:53;;;;;;;1.15;0.65;;;;;;;11.94;27.30;91631.78;5454854;26;20007;-78
2024/04/18 07:10:31;;;;;;;0.63;0.60;;;;;;;11.51;27.16;91619.53;5452090;26;19999;-78
2024/04/18 07:12:56;;;;;;;1.58;0.70;;;;;;;11.66;28.50;91626.13;5451974;26;20010;-77
2024/04/18 07:15:22;;;;;;;1.38;0.70;;;;;;;11.75;28.25;91626.84;5452689;26;20025;-78
2024/04/18 07:18:07;;;;;;;0.80;0.65;;;;;;;11.80;28.64;91637.19;5450942;26;20003;-79
2024/04/18 07:20:33;;;;;;;3.20;0.70;;;;;;;11.97;28.44;91631.13;5452520;26;20009;-78
2024/04/18 07:23:05;;;;;;;1.27;0.70;;;;;;;12.10;28.45;91626.78;5451517;26;19994;-78
2024/04/18 07:25:31;;;;;;;1.02;0.70;;;;;;;12.20;28.33;91629.03;5453080;26;20411;-78
2024/04/18 07:27:56;;;;;;;1.88;0.70;;;;;;;12.21;28.05;91624.56;5451555;26;20023;-78
2024/04/18 07:30:22;;;;;;;1.15;0.93;;;;;;;12.33;27.33;91631.75;5449007;26;20003;-78
2024/04/18 07:32:48;;;;;;;1.27;0.80;;;;;;;12.45;27.71;91634.47;5436227;26;20060;-78
2024/04/18 07:35:13;;;;;;;0.68;0.68;;;;;;;12.24;25.57;91637.03;5451498;26;20071;-78
2024/04/18 07:37:39;;;;;;;2.08;0.70;;;;;;;12.44;26.54;91643.44;5448711;26;20053;-78
2024/04/18 07:40:12;;;;;;;1.13;0.70;;;;;;;12.71;28.43;91632.44;5452120;26;20044;-78
2024/04/18 07:42:38;;;;;;;0.57;0.57;;;;;;;13.03;27.33;91637.31;5452414;26;20007;-78
2024/04/18 07:45:04;;;;;;;1.20;0.68;;;;;;;13.26;26.28;91648.25;5451170;26;20536;-78
2024/04/18 07:47:29;;;;;;;0.68;0.65;;;;;;;13.30;26.75;91646.56;5450136;26;20008;-78
2024/04/18 07:49:55;;;;;;;0.82;0.80;;;;;;;13.43;26.53;91642.13;5452357;26;19999;-78
2024/04/18 07:52:20;;;;;;;1.33;0.88;;;;;;;13.17;26.86;91650.97;5454202;26;19999;-78
2024/04/18 07:54:46;;;;;;;0.73;0.70;;;;;;;13.23;25.79;91651.53;5453143;26;20052;-78
2024/04/18 07:57:12;;;;;;;0.93;0.80;;;;;;;13.18;26.02;91654.38;5451161;26;19995;-78
2024/04/18 07:59:37;;;;;;;2.42;0.90;;;;;;;12.49;26.18;91648.50;5455695;26;20412;-78
2024/04/18 08:02:03;;;;;;;1.23;0.80;;;;;;;12.98;26.97;91653.28;5455161;26;20035;-78
2024/04/18 08:04:29;;;;;;;1.13;0.80;;;;;;;13.07;26.67;91649.50;5454939;26;20010;-79
2024/04/18 08:06:55;;;;;;;0.77;0.73;;;;;;;13.08;26.35;91656.31;5458057;26;20013;-78
2024/04/18 08:09:21;;;;;;;2.00;0.80;;;;;;;13.17;26.58;91655.44;5457995;26;20083;-78
2024/04/18 08:11:46;;;;;;;1.65;0.68;;;;;;;13.60;25.08;91651.69;5459880;26;20013;-79
2024/04/18 08:14:12;;;;;;;0.85;0.80;;;;;;;13.38;26.76;91661.50;5452561;26;20003;-79
2024/04/18 08:16:38;;;;;;;3.20;1.25;;;;;;;13.61;25.47;91650.63;5451691;26;19998;-79
2024/04/18 08:19:04;;;;;;;0.70;0.70;;;;;;;13.61;27.45;91656.63;5452517;26;20468;-79
2024/04/18 08:21:30;;;;;;;0.95;0.90;;;;;;;13.28;25.83;91667.13;5454998;26;20027;-79
2024/04/18 08:23:57;;;;;;;0.77;0.77;;;;;;;13.73;25.56;91672.47;5427335;26;20006;-79
2024/04/18 08:26:22;;;;;;;1.17;0.70;;;;;;;13.79;25.41;91673.00;5455767;26;20010;-79
2024/04/18 08:28:49;;;;;;;1.85;0.77;;;;;;;13.26;24.62;91674.53;5455161;26;20007;-79
2024/04/18 08:31:25;;;;;;;1.83;0.77;;;;;;;13.62;25.70;91688.94;5456667;26;20018;-79
2024/04/18 08:33:51;;;;;;;0.50;0.50;;;;;;;13.85;23.99;91669.09;5449667;26;20049;-78
2024/04/18 08:36:17;;;;;;;1.13;0.80;;;;;;;13.93;25.65;91662.94;5449580;26;19995;-79
2024/04/18 08:38:43;;;;;;;4.20;1.10;;;;;;;13.94;26.07;91669.75;5468340;26;19998;-78
2024/04/18 08:41:12;;;;;;;0.65;0.60;;;;;;;13.84;25.30;91678.06;5457521;26;19991;-78
2024/04/18 08:43:41;;;;;;;1.27;0.80;;;;;;;13.02;27.14;91681.22;5456876;26;20044;-79
2024/04/18 08:46:08;;;;;;;0.82;0.80;;;;;;;13.62;26.97;91667.91;5457736;26;20346;-79
2024/04/18 08:48:34;;;;;;;1.48;0.80;;;;;;;13.17;24.18;91681.72;5458290;26;20011;-78
2024/04/18 08:51:01;;;;;;;0.93;0.57;;;;;;;13.48;25.91;91689.22;5458974;26;20002;-78
2024/04/18 08:53:27;;;;;;;0.60;0.60;;;;;;;14.02;26.66;91677.88;5458754;26;19999;-78
2024/04/18 08:55:56;;;;;;;0.88;0.82;;;;;;;13.26;23.98;91691.09;5485549;26;20350;-78
2024/04/18 08:58:22;;;;;;;1.38;0.73;;;;;;;12.58;25.81;91696.47;5457137;26;20006;-78
2024/04/18 09:00:48;;;;;;;0.77;0.63;;;;;;;12.26;24.22;91696.00;5458771;26;20003;-78
2024/04/18 09:03:14;;;;;;;1.27;0.80;;;;;;;12.81;25.74;91690.94;5458130;26;20009;-79
2024/04/18 09:05:44;;;;;;;0.90;0.50;;;;;;;12.62;25.98;91676.38;5457589;26;20011;-78
2024/04/18 09:08:12;;;;;;;1.25;0.77;;;;;;;11.76;26.69;91687.97;5456292;26;20030;-78
2024/04/18 09:10:42;;;;;;;0.75;0.70;;;;;;;12.39;26.38;91693.47;5456889;26;20010;-78
2024/04/18 09:13:09;;;;;;;1.15;0.80;;;;;;;11.30;26.50;91692.00;5454370;26;20486;-78
2024/04/18 09:15:35;;;;;;;0.93;0.85;;;;;;;12.15;27.27;91678.28;5457156;26;20834;-78
2024/04/18 09:18:05;;;;;;;0.80;0.80;;;;;;;12.22;27.51;91683.81;5454310;26;20005;-79
2024/04/18 09:20:33;;;;;;;0.80;0.80;;;;;;;11.95;27.66;91675.25;5451908;26;20011;-78
2024/04/18 09:22:59;;;;;;;1.05;0.73;;;;;;;11.27;26.29;91680.31;5449585;26;20002;-78
2024/04/18 09:25:25;;;;;;;1.25;0.70;;;;;;;11.30;26.99;91674.44;5450757;26;20015;-78
2024/04/18 09:27:50;;;;;;;0.93;0.80;;;;;;;11.34;28.05;91672.75;5449420;26;20395;-78
2024/04/18 09:30:16;;;;;;;1.20;0.70;;;;;;;11.64;27.78;91680.72;5419829;26;20013;-78
2024/04/18 09:32:42;;;;;;;0.75;0.70;;;;;;;12.36;26.02;91687.00;5451649;26;20010;-79
2024/04/18 09:35:09;;;;;;;2.03;0.73;;;;;;;12.32;27.45;91678.22;5455113;26;20014;-77
2024/04/18 09:37:37;;;;;;;1.10;0.80;;;;;;;12.62;27.49;91684.25;5415021;26;20049;-78
2024/04/18 09:40:08;;;;;;;0.63;0.60;;;;;;;12.45;26.45;91692.19;5451509;26;20013;-79
2024/04/18 09:42:39;;;;;;;0.50;0.50;;;;;;;12.27;26.69;91687.06;5451680;26;20104;-79
2024/04/18 09:45:06;;;;;;;0.70;0.70;;;;;;;11.93;25.38;91698.41;5453488;26;20035;-79
2024/04/18 09:47:34;;;;;;;1.20;0.70;;;;;;;11.82;26.22;91668.34;5435021;26;20043;-78
2024/04/18 09:50:01;;;;;;;0.50;0.50;;;;;;;11.45;25.63;91694.94;5442574;26;20052;-79
2024/04/18 09:52:27;;;;;;;0.68;0.60;;;;;;;11.21;26.72;91692.00;5450377;26;20050;-79
2024/04/18 09:54:55;;;;;;;0.70;0.70;;;;;;;10.83;27.13;91685.53;5447120;26;20013;-78
2024/04/18 09:57:22;;;;;;;1.15;0.73;;;;;;;11.05;27.75;91683.84;5451348;26;20011;-78
2024/04/18 09:59:50;;;;;;;1.60;0.77;;;;;;;11.41;26.76;91686.13;5446521;26;20023;-79
2024/04/18 10:02:16;;;;;;;0.65;0.65;;;;;;;11.55;26.08;91690.44;5431844;26;20059;-78
2024/04/18 10:04:43;;;;;;;1.65;1.00;;;;;;;11.67;25.31;91673.00;5421138;26;20021;-78
2024/04/18 10:07:11;;;;;;;1.40;0.90;;;;;;;11.72;26.33;91681.78;5460583;26;20393;-78
2024/04/18 10:09:39;;;;;;;0.85;0.70;;;;;;;12.44;28.04;91690.69;5448554;26;19998;-78
2024/04/18 10:12:08;;;;;;;1.58;0.80;;;;;;;13.05;25.64;91682.44;5448641;26;20018;-78
2024/04/18 10:14:36;;;;;;;0.80;0.80;;;;;;;12.65;25.70;91686.25;5445495;26;20464;-78
2024/04/18 10:17:03;;;;;;;0.80;0.80;;;;;;;12.99;25.68;91695.00;5448529;26;19999;-78
2024/04/18 10:19:29;;;;;;;1.63;1.08;;;;;;;13.68;23.28;91677.16;5447829;26;20013;-78
2024/04/18 10:21:59;;;;;;;1.02;0.77;;;;;;;13.04;25.53;91667.78;5450438;26;19998;-78
2024/04/18 10:24:33;;;;;;;2.30;1.00;;;;;;;12.46;25.32;91673.53;5446208;26;20010;-78
2024/04/18 10:27:10;;;;;;;0.65;0.65;;;;;;;13.23;25.67;91701.47;5450709;26;20003;-78
2024/04/18 10:29:36;;;;;;;1.00;0.80;;;;;;;13.24;24.33;91680.13;5447735;26;20433;-77
2024/04/18 10:32:05;;;;;;;1.45;0.80;;;;;;;12.82;23.26;91674.09;5451242;26;20002;-78
2024/04/18 10:34:31;;;;;;;2.83;0.70;;;;;;;13.18;24.27;91678.03;5450933;26;20325;-78
2024/04/18 10:37:02;;;;;;;1.25;0.73;;;;;;;13.52;23.57;91653.31;5448028;26;20007;-77
2024/04/18 10:39:40;;;;;;;1.10;0.90;;;;;;;13.15;23.42;91686.53;5443125;26;20097;-78
2024/04/18 10:42:10;;;;;;;0.85;0.75;;;;;;;13.50;23.00;91671.28;5450160;26;20015;-77
2024/04/18 10:44:37;;;;;;;0.75;0.70;;;;;;;13.75;23.90;91653.72;5452789;26;20011;-78
2024/04/18 10:47:04;;;;;;;1.30;0.80;;;;;;;13.97;22.85;91678.09;5448816;26;20013;-78
2024/04/18 10:49:29;;;;;;;0.75;0.75;;;;;;;13.40;23.40;91669.81;5449444;26;20157;-78
2024/04/18 10:51:57;;;;;;;0.75;0.73;;;;;;;12.79;24.47;91685.22;5447591;26;20003;-78
2024/04/18 10:54:23;;;;;;;0.52;0.52;;;;;;;12.96;23.70;91682.50;5418309;26;19996;-78
2024/04/18 10:56:50;;;;;;;0.70;0.70;;;;;;;12.53;23.72;91659.91;5445960;26;20006;-77
2024/04/18 10:59:15;;;;;;;1.05;0.90;;;;;;;12.76;25.20;91673.50;5448230;26;20013;-77
2024/04/18 11:01:42;;;;;;;1.05;0.82;;;;;;;12.89;23.69;91679.59;5448871;26;20367;-78
2024/04/18 11:04:09;;;;;;;0.95;0.65;;;;;;;11.84;22.64;91685.31;5448837;26;20505;-77
2024/04/18 11:06:41;;;;;;;1.00;0.70;;;;;;;12.68;23.96;91661.22;5448994;26;20463;-77
2024/04/18 11:09:07;;;;;;;1.10;0.77;;;;;;;12.91;24.82;91661.69;5447420;26;19999;-77
2024/04/18 11:11:38;;;;;;;1.50;0.90;;;;;;;12.94;24.47;91661.03;5445813;26;20014;-77
2024/04/18 11:14:04;;;;;;;1.30;0.93;;;;;;;12.80;23.07;91657.88;5448200;26;20417;-77
2024/04/18 11:16:29;;;;;;;0.80;0.80;;;;;;;12.98;25.26;91669.81;5448251;26;20003;-77
2024/04/18 11:18:56;;;;;;;0.50;0.50;;;;;;;13.68;26.31;91667.38;5447486;26;20010;-77
2024/04/18 11:21:24;;;;;;;1.65;0.75;;;;;;;13.59;23.30;91692.25;5449334;26;20010;-77
2024/04/18 11:23:55;;;;;;;1.48;0.82;;;;;;;13.47;24.35;91683.22;5441554;26;20048;-79
2024/04/18 11:26:22;;;;;;;0.70;0.60;;;;;;;13.21;23.84;91685.25;5452632;26;19999;-79
2024/04/18 11:28:52;;;;;;;2.83;0.80;;;;;;;11.98;22.88;91679.91;5453206;26;20449;-78
2024/04/18 11:31:18;;;;;;;0.90;0.70;;;;;;;11.48;24.40;91677.81;5451992;26;20098;-78
2024/04/18 11:33:44;;;;;;;1.00;0.77;;;;;;;11.40;23.68;91689.84;5450435;26;20002;-78
2024/04/18 11:36:09;;;;;;;1.00;0.73;;;;;;;11.53;24.86;91689.97;5454326;26;20009;-79
2024/04/18 11:38:35;;;;;;;1.13;0.90;;;;;;;11.53;24.23;91682.13;5457724;26;20078;-78
2024/04/18 11:41:01;;;;;;;0.80;0.80;;;;;;;11.13;24.67;91690.19;5452144;26;20011;-78
2024/04/18 11:43:27;;;;;;;1.10;0.77;;;;;;;11.17;24.18;91694.50;5456198;26;20006;-78
2024/04/18 11:45:52;;;;;;;1.70;0.90;;;;;;;11.38;23.96;91678.91;5452383;26;19999;-78
2024/04/18 11:48:18;;;;;;;1.60;0.90;;;;;;;11.12;25.24;91686.00;5453124;26;20003;-78
2024/04/18 11:50:44;;;;;;;1.45;1.00;;;;;;;11.45;25.60;91678.44;5456888;26;20087;-78
2024/04/18 11:53:10;;;;;;;0.70;0.70;;;;;;;11.94;24.20;91684.22;5455468;26;20006;-78
2024/04/18 11:55:36;;;;;;;4.25;0.75;;;;;;;11.75;23.68;91679.28;5452749;26;20421;-78